createdAt,value
2018-04-06T00:00:37.256Z,4.37
2018-04-06T00:03:04.756Z,4.60
2018-04-06T00:05:32.257Z,4.80
2018-04-06T00:08:00.647Z,5.50
2018-04-06T00:10:28.918Z,6.53
2018-04-06T00:12:57.176Z,8.07
2018-04-06T00:15:24.726Z,6.23
2018-04-06T00:17:52.230Z,5.90
2018-04-06T00:20:20.512Z,5.53
2018-04-06T00:22:48.284Z,6.13
2018-04-06T00:25:15.801Z,6.27
2018-04-06T00:27:43.297Z,6.10
2018-04-06T00:30:11.594Z,6.77
2018-04-06T00:32:39.114Z,6.57
2018-04-06T00:35:06.618Z,6.87
2018-04-06T00:37:34.167Z,6.83
2018-04-06T00:40:02.430Z,6.53
2018-04-06T00:42:29.931Z,6.50
2018-04-06T00:44:57.693Z,6.13
2018-04-06T00:47:25.198Z,6.60
2018-04-06T00:49:52.692Z,6.37
2018-04-06T00:52:20.397Z,7.10
2018-04-06T00:54:47.891Z,6.43
2018-04-06T00:57:15.418Z,7.50
2018-04-06T00:59:43.192Z,7.83
2018-04-06T01:02:10.692Z,8.40
2018-04-06T01:04:38.198Z,8.50
2018-04-06T01:07:06.780Z,12.00
2018-04-06T01:09:35.089Z,13.23
2018-04-06T01:12:02.624Z,11.53
2018-04-06T01:14:30.940Z,10.20
2018-04-06T01:16:58.448Z,10.23
2018-04-06T01:19:25.992Z,10.23
2018-04-06T01:21:53.845Z,8.87
2018-04-06T01:24:21.346Z,9.17
2018-04-06T01:26:48.854Z,8.87
2018-04-06T01:29:16.600Z,8.83
2018-04-06T01:31:44.879Z,9.13
2018-04-06T01:34:13.364Z,8.47
2018-04-06T01:36:41.639Z,8.93
2018-04-06T01:39:10.023Z,8.83
2018-04-06T01:41:38.294Z,7.97
2018-04-06T01:44:05.801Z,8.53
2018-04-06T01:46:33.353Z,8.90
2018-04-06T01:49:00.868Z,9.10
2018-04-06T01:51:28.367Z,7.73
2018-04-06T01:53:56.032Z,8.07
2018-04-06T01:56:24.298Z,9.03
2018-04-06T01:58:52.568Z,8.17
2018-04-06T02:01:20.272Z,8.53
2018-04-06T02:03:47.768Z,8.50
2018-04-06T02:06:15.268Z,9.10
2018-04-06T02:08:43.803Z,8.10
2018-04-06T02:11:11.314Z,9.17
2018-04-06T02:13:39.576Z,8.37
2018-04-06T02:16:07.109Z,8.60
2018-04-06T02:18:34.613Z,8.97
2018-04-06T02:21:02.133Z,8.77
2018-04-06T02:23:29.759Z,8.67
2018-04-06T02:25:58.020Z,9.30
2018-04-06T02:28:25.521Z,8.97
2018-04-06T02:30:53.056Z,9.30
2018-04-06T02:33:20.567Z,9.50
2018-04-06T02:35:48.072Z,9.93
2018-04-06T02:38:15.692Z,10.17
2018-04-06T02:40:43.192Z,9.10
2018-04-06T02:43:10.704Z,9.23
2018-04-06T02:45:38.341Z,10.10
2018-04-06T02:48:06.610Z,9.07
2018-04-06T02:50:34.119Z,8.97
2018-04-06T02:53:01.829Z,8.73
2018-04-06T02:55:29.352Z,8.97
2018-04-06T02:57:56.879Z,8.80
2018-04-06T03:00:25.291Z,8.60
2018-04-06T03:02:52.814Z,8.53
2018-04-06T03:05:20.324Z,8.67
2018-04-06T03:07:48.148Z,8.30
2018-04-06T03:10:15.644Z,8.53
2018-04-06T03:12:43.140Z,8.57
2018-04-06T03:15:10.671Z,9.30
2018-04-06T03:17:38.193Z,8.67
2018-04-06T03:20:05.684Z,9.73
2018-04-06T03:22:35.080Z,10.17
2018-04-06T03:25:03.354Z,8.87
2018-04-06T03:27:31.632Z,11.30
2018-04-06T03:29:59.183Z,9.90
2018-04-06T03:32:26.680Z,9.73
2018-04-06T03:34:55.164Z,9.33
2018-04-06T03:37:23.435Z,9.13
2018-04-06T03:39:51.934Z,9.17
2018-04-06T03:42:19.482Z,9.47
2018-04-06T03:44:47.753Z,8.80
2018-04-06T03:47:15.277Z,8.20
2018-04-06T03:49:42.774Z,8.50
2018-04-06T03:52:10.284Z,7.80
2018-04-06T03:54:38.041Z,8.23
2018-04-06T03:57:05.552Z,7.73
2018-04-06T03:59:33.071Z,8.57
2018-04-06T04:02:00.608Z,8.70
2018-04-06T04:04:28.877Z,8.60
2018-04-06T04:06:56.380Z,8.10
2018-04-06T04:09:23.917Z,8.43
2018-04-06T04:11:52.200Z,10.00
2018-04-06T04:14:19.735Z,11.33
2018-04-06T04:16:47.546Z,12.13
2018-04-06T04:19:15.055Z,15.67
2018-04-06T04:21:42.556Z,14.20
2018-04-06T04:24:10.852Z,13.93
2018-04-06T04:26:38.368Z,14.03
2018-04-06T04:29:06.634Z,12.93
2018-04-06T04:31:34.323Z,13.70
2018-04-06T04:34:01.837Z,12.37
2018-04-06T04:36:29.346Z,12.50
2018-04-06T04:38:57.049Z,12.73
2018-04-06T04:41:25.327Z,12.80
2018-04-06T04:43:53.914Z,13.30
2018-04-06T04:46:22.185Z,13.20
2018-04-06T04:48:49.747Z,12.97
2018-04-06T04:51:18.255Z,12.90
2018-04-06T04:53:45.774Z,13.57
2018-04-06T04:56:13.310Z,12.93
2018-04-06T04:58:41.154Z,12.80
2018-04-06T05:01:08.667Z,13.73
2018-04-06T05:03:36.190Z,12.23
2018-04-06T05:06:03.861Z,13.37
2018-04-06T05:08:31.396Z,12.73
2018-04-06T05:10:59.678Z,12.90
2018-04-06T05:13:28.081Z,12.90
2018-04-06T05:15:55.602Z,13.33
2018-04-06T05:18:23.146Z,12.50
2018-04-06T05:20:50.853Z,12.70
2018-04-06T05:23:19.134Z,13.13
2018-04-06T05:25:47.517Z,13.47
2018-04-06T05:28:15.921Z,12.87
2018-04-06T05:30:43.432Z,15.83
2018-04-06T05:33:10.945Z,11.87
2018-04-06T05:35:38.483Z,13.37
2018-04-06T05:38:06.740Z,12.37
2018-04-06T05:40:34.262Z,13.13
2018-04-06T05:43:01.805Z,12.43
2018-04-06T05:45:29.319Z,13.43
2018-04-06T05:47:57.588Z,11.80
2018-04-06T05:50:25.412Z,11.83
2018-04-06T05:52:53.690Z,12.20
2018-04-06T05:55:22.081Z,11.47
2018-04-06T05:57:49.594Z,12.33
2018-04-06T06:00:17.100Z,12.17
2018-04-06T06:02:45.487Z,11.17
2018-04-06T06:05:12.990Z,11.43
2018-04-06T06:07:40.489Z,11.23
2018-04-06T06:10:07.991Z,10.90
2018-04-06T06:12:35.500Z,11.87
2018-04-06T06:15:03.147Z,12.97
2018-04-06T06:17:30.663Z,13.53
2018-04-06T06:19:58.930Z,13.67
2018-04-06T06:22:29.786Z,14.03
2018-04-06T06:24:57.346Z,14.60
2018-04-06T06:27:25.645Z,14.60
2018-04-06T06:29:54.056Z,14.07
2018-04-06T12:15:33.524Z,3.57
2018-04-06T12:18:01.074Z,3.70
2018-04-06T12:20:28.626Z,3.90
2018-04-06T12:22:56.453Z,3.57
2018-04-06T12:25:24.793Z,3.70
2018-04-06T12:27:52.308Z,3.70
2018-04-06T12:30:20.078Z,3.80
2018-04-06T12:32:47.591Z,3.37
2018-04-06T12:35:15.138Z,3.60
2018-04-06T12:37:42.871Z,4.30
2018-04-06T12:40:10.433Z,3.67
2018-04-06T12:42:39.323Z,3.33
2018-04-06T12:45:07.854Z,3.50
2018-04-06T12:47:35.367Z,3.50
2018-04-06T12:50:02.922Z,3.50
2018-04-06T12:52:30.576Z,3.50
2018-04-06T12:54:58.133Z,3.77
2018-04-06T12:57:25.655Z,3.27
2018-04-06T12:59:53.415Z,3.50
2018-04-06T13:02:21.758Z,3.93
2018-04-06T13:04:49.300Z,3.50
2018-04-06T13:07:16.958Z,3.40
2018-04-06T13:09:45.320Z,3.20
2018-04-06T13:12:13.020Z,3.10
2018-04-06T13:14:40.612Z,3.13
2018-04-06T13:17:08.146Z,3.60
2018-04-06T13:19:35.769Z,3.80
2018-04-06T13:22:04.086Z,3.93
2018-04-06T13:24:31.632Z,4.03
2018-04-06T13:26:59.391Z,3.20
2018-04-06T13:29:26.931Z,3.07
2018-04-06T13:31:54.479Z,3.33
2018-04-06T13:34:22.343Z,3.63
2018-04-06T13:36:49.880Z,3.63
2018-04-06T13:39:17.455Z,3.07
2018-04-06T13:41:45.040Z,3.10
2018-04-06T13:44:12.631Z,2.93
2018-04-06T13:46:41.055Z,3.10
2018-04-06T13:49:08.610Z,3.47
2018-04-06T13:51:36.178Z,2.77
2018-04-06T13:54:04.071Z,3.23
2018-04-06T13:56:31.678Z,3.53
2018-04-06T13:58:59.989Z,3.37
2018-04-06T14:01:27.687Z,3.03
2018-04-06T14:03:55.303Z,2.50
2018-04-06T14:06:23.596Z,3.27
2018-04-06T14:08:51.292Z,3.43
2018-04-06T14:11:18.821Z,3.37
2018-04-06T14:13:47.104Z,2.97
2018-04-06T14:16:14.660Z,3.07
2018-04-06T14:18:42.947Z,3.07
2018-04-06T14:21:10.555Z,3.33
2018-04-06T14:23:38.089Z,4.17
2018-04-06T14:26:05.810Z,3.77
2018-04-06T14:28:33.446Z,3.07
2018-04-06T14:31:01.279Z,3.60
2018-04-06T14:33:29.588Z,3.77
2018-04-06T14:35:57.168Z,3.57
2018-04-06T14:38:24.877Z,4.90
2018-04-06T14:40:53.552Z,3.67
2018-04-06T14:43:21.129Z,3.13
2018-04-06T14:45:49.062Z,3.67
2018-04-06T14:48:16.798Z,4.57
2018-04-06T14:50:44.473Z,3.90
2018-04-06T14:53:12.513Z,3.90
2018-04-06T14:55:41.113Z,4.27
2018-04-06T14:58:09.435Z,4.40
2018-04-06T15:00:37.059Z,3.50
2018-04-06T15:03:05.460Z,3.40
2018-04-06T15:05:33.185Z,3.30
2018-04-06T15:08:00.722Z,3.90
2018-04-06T15:10:29.290Z,4.50
2018-04-06T15:12:56.829Z,3.47
2018-04-06T15:15:24.367Z,3.77
2018-04-06T15:17:51.910Z,4.10
2018-04-06T15:20:19.551Z,3.70
2018-04-06T15:22:47.101Z,3.30
2018-04-06T15:25:14.645Z,4.03
2018-04-06T15:27:43.087Z,4.67
2018-04-06T15:30:10.595Z,3.60
2018-04-06T15:32:38.888Z,3.13
2018-04-06T15:35:06.590Z,4.13
2018-04-06T15:37:34.123Z,3.50
2018-04-06T15:40:01.750Z,3.57
2018-04-06T15:42:29.311Z,4.67
2018-04-06T15:44:56.813Z,3.87
2018-04-06T15:47:24.339Z,3.63
2018-04-06T15:49:51.908Z,3.63
2018-04-06T15:52:20.235Z,3.80
2018-04-06T15:54:47.751Z,4.37
2018-04-06T15:57:16.267Z,4.50
2018-04-06T15:59:43.776Z,5.37
2018-04-06T16:02:11.356Z,5.20
2018-04-06T16:04:39.007Z,4.87
2018-04-06T16:07:06.557Z,4.80
2018-04-06T16:09:34.147Z,4.27
2018-04-06T16:12:01.947Z,4.37
2018-04-06T16:14:30.233Z,4.33
2018-04-06T16:16:57.749Z,4.67
2018-04-06T16:19:25.329Z,4.90
2018-04-06T16:21:52.842Z,4.23
2018-04-06T16:24:20.359Z,6.17
2018-04-06T16:26:47.892Z,4.30
2018-04-06T16:29:15.422Z,4.57
2018-04-06T16:31:42.939Z,4.70
2018-04-06T16:34:10.645Z,5.07
2018-04-06T16:36:38.170Z,4.23
2018-04-06T16:39:05.713Z,5.70
2018-04-06T16:41:33.471Z,4.50
2018-04-06T16:44:01.052Z,4.10
2018-04-06T16:46:28.561Z,5.40
2018-04-06T16:48:56.336Z,5.37
2018-04-06T16:51:23.848Z,5.00
2018-04-06T16:53:51.356Z,3.83
2018-04-06T16:56:18.993Z,4.57
2018-04-06T16:58:46.634Z,5.13
2018-04-06T17:01:14.126Z,4.43
2018-04-06T17:03:41.758Z,4.03
2018-04-06T17:06:09.315Z,4.03
2018-04-06T17:08:36.847Z,5.10
2018-04-06T17:11:04.652Z,4.90
2018-04-06T17:13:32.212Z,5.17
2018-04-06T17:15:59.757Z,4.77
2018-04-06T17:18:27.430Z,4.73
2018-04-06T17:20:54.962Z,4.57
2018-04-06T17:23:23.461Z,4.83
2018-04-06T17:25:50.975Z,5.90
2018-04-06T17:28:18.687Z,7.57
2018-04-06T17:30:46.483Z,7.83
2018-04-06T17:33:14.049Z,8.03
2018-04-06T17:35:41.631Z,8.90
2018-04-06T17:38:09.368Z,11.57
2018-04-06T17:40:37.021Z,10.77
2018-04-06T17:43:04.736Z,10.40
2018-04-06T17:45:33.305Z,10.33
2018-04-06T17:48:01.130Z,7.67
2018-04-06T17:50:28.696Z,9.27
2018-04-06T17:52:57.405Z,10.00
2018-04-06T17:55:24.926Z,10.47
2018-04-06T17:57:52.461Z,9.73
2018-04-06T18:00:19.999Z,9.00
2018-04-06T18:02:47.706Z,9.43
2018-04-06T18:05:15.295Z,8.27
2018-04-06T18:07:42.830Z,9.70
2018-04-06T18:10:10.347Z,10.27
2018-04-06T18:29:25.973Z,21.57
2018-04-06T18:31:54.383Z,23.27
2018-04-06T18:34:21.904Z,23.27
2018-04-06T18:36:49.508Z,25.77
2018-04-06T18:39:17.327Z,24.13
2018-04-06T18:41:44.991Z,22.60
2018-04-06T18:44:12.558Z,19.87
2018-04-06T18:46:40.280Z,19.20
2018-04-06T18:49:07.808Z,20.77
2018-04-06T18:51:35.360Z,19.83
2018-04-06T18:54:03.067Z,20.10
2018-04-06T18:56:30.602Z,20.17
2018-04-06T18:58:58.127Z,19.20
2018-04-06T19:01:25.897Z,20.03
2018-04-06T19:03:53.460Z,19.53
2018-04-06T19:06:21.050Z,19.20
2018-04-06T19:08:48.644Z,19.00
2018-04-06T19:11:17.051Z,18.13
2018-04-06T19:13:44.612Z,17.87
2018-04-06T19:16:12.456Z,17.03
2018-04-06T19:18:40.753Z,19.00
2018-04-06T19:21:09.185Z,17.43
2018-04-06T19:23:36.753Z,18.30
2018-04-06T19:26:04.601Z,18.97
2018-04-06T19:28:32.352Z,18.83
2018-04-06T19:31:00.497Z,20.17
2018-04-06T19:33:29.111Z,20.40
2018-04-06T19:35:56.807Z,20.90
2018-04-06T19:38:24.459Z,20.67
2018-04-06T19:40:52.171Z,21.47
2018-04-06T19:43:19.917Z,21.10
2018-04-06T19:45:47.488Z,22.83
2018-04-06T19:48:15.202Z,23.20
2018-04-06T19:50:42.736Z,23.20
2018-04-06T19:53:10.314Z,21.53
2018-04-06T19:55:38.905Z,22.90
2018-04-06T19:58:07.201Z,23.07
2018-04-06T20:00:35.546Z,22.73
2018-04-06T20:03:03.418Z,22.63
2018-04-06T20:05:31.044Z,25.00
2018-04-06T20:07:58.653Z,23.50
2018-04-06T20:10:26.297Z,23.67
2018-04-06T20:12:53.823Z,23.60
2018-04-06T20:15:21.499Z,23.13
2018-04-06T20:17:49.158Z,18.53
2018-04-06T20:20:16.673Z,18.20
2018-04-06T20:22:44.412Z,16.17
2018-04-06T20:25:11.988Z,15.67
2018-04-06T20:27:39.741Z,15.77
2018-04-06T20:30:07.511Z,14.83
2018-04-06T20:32:35.427Z,15.97
2018-04-06T20:35:03.124Z,17.93
2018-04-06T20:37:30.722Z,17.53
2018-04-06T20:39:58.510Z,17.07
2018-04-06T20:42:26.271Z,16.23
2018-04-06T20:44:53.804Z,17.57
2018-04-06T20:47:21.583Z,17.80
2018-04-06T20:49:49.399Z,17.30
2018-04-06T20:52:16.934Z,16.77
2018-04-06T20:54:44.477Z,20.37
2018-04-06T20:57:12.238Z,19.47
2018-04-06T20:59:39.931Z,20.40
2018-04-06T21:02:07.636Z,21.83
2018-04-06T21:04:36.216Z,23.10
2018-04-06T21:07:03.732Z,21.60
2018-04-06T21:09:31.272Z,22.20
2018-04-06T21:11:59.082Z,20.30
2018-04-06T21:14:26.653Z,20.47
2018-04-06T21:16:54.502Z,20.17
2018-04-06T21:19:22.047Z,22.87
2018-04-06T21:21:49.986Z,22.20
2018-04-06T21:24:18.296Z,21.93
2018-04-06T21:26:46.069Z,22.23
2018-04-06T21:29:13.601Z,22.50
2018-04-06T21:31:41.909Z,23.47
2018-04-06T21:34:09.703Z,23.93
2018-04-06T21:36:37.231Z,24.93
2018-04-06T21:39:06.452Z,25.50
2018-04-06T21:41:34.105Z,25.23
2018-04-06T21:44:02.449Z,25.20
2018-04-06T21:46:29.993Z,24.73
2018-04-06T21:48:57.735Z,26.10
2018-04-06T21:51:25.280Z,26.27
2018-04-06T21:53:53.598Z,26.40
2018-04-06T21:56:21.202Z,25.57
2018-04-06T21:58:48.710Z,26.37
2018-04-06T22:01:16.205Z,27.37
2018-04-06T22:03:43.814Z,27.77
2018-04-06T22:06:12.113Z,28.30
2018-04-06T22:08:39.879Z,30.73
2018-04-06T22:11:07.416Z,31.43
2018-04-06T22:13:35.744Z,30.17
2018-04-06T22:16:03.294Z,27.03
2018-04-06T22:18:30.821Z,28.63
2018-04-06T22:20:59.141Z,28.07
2018-04-06T22:23:26.831Z,27.77
2018-04-06T22:25:54.388Z,28.77
2018-04-06T22:28:21.948Z,28.23
2018-04-06T22:30:49.506Z,28.60
2018-04-06T22:33:17.072Z,29.70
2018-04-06T22:35:44.625Z,32.43
2018-04-06T22:38:12.383Z,36.60
2018-04-06T22:40:39.941Z,36.33
2018-04-06T22:43:07.488Z,37.27
2018-04-06T22:45:35.918Z,35.83
2018-04-06T22:48:03.438Z,33.90
2018-04-06T22:50:32.476Z,35.20
2018-04-06T22:53:00.289Z,32.90
2018-04-06T22:55:27.897Z,34.77
2018-04-06T22:57:55.486Z,32.27
2018-04-06T23:00:23.296Z,32.83
2018-04-06T23:02:51.632Z,35.37
2018-04-06T23:05:19.163Z,40.30
2018-04-06T23:07:46.814Z,39.67
2018-04-06T23:10:15.113Z,39.23
2018-04-06T23:12:42.659Z,38.80
2018-04-06T23:15:11.122Z,36.80
2018-04-06T23:17:38.690Z,32.77
2018-04-06T23:20:06.374Z,31.40
2018-04-06T23:22:34.810Z,30.23
2018-04-06T23:25:02.352Z,26.80
2018-04-06T23:27:29.882Z,25.93
2018-04-06T23:29:58.332Z,26.80
2018-04-06T23:32:25.927Z,25.83
2018-04-06T23:34:54.253Z,27.83
2018-04-06T23:37:22.037Z,31.30
2018-04-06T23:39:49.626Z,31.47
2018-04-06T23:42:17.196Z,29.37
2018-04-06T23:44:44.783Z,28.37
2018-04-06T23:47:13.088Z,26.93
2018-04-06T23:49:40.594Z,27.10
2018-04-06T23:52:08.349Z,26.60
2018-04-06T23:54:35.984Z,26.10
2018-04-06T23:57:03.552Z,24.97
2018-04-06T23:59:31.317Z,24.60
